createdAt,value
2022-11-19T00:01:28.585Z,12.88
2022-11-19T00:03:56.225Z,12.94
2022-11-19T00:06:26.161Z,12.96
2022-11-19T00:08:54.058Z,12.82
2022-11-19T00:11:42.039Z,12.86
2022-11-19T00:14:10.414Z,12.63
2022-11-19T00:16:37.364Z,12.49
2022-11-19T00:19:05.009Z,12.48
2022-11-19T00:21:32.180Z,12.43
2022-11-19T00:23:59.406Z,12.38
2022-11-19T00:26:26.673Z,12.49
2022-11-19T00:28:55.023Z,12.49
2022-11-19T00:31:22.513Z,12.36
2022-11-19T00:33:54.524Z,12.41
2022-11-19T00:36:22.529Z,12.32
2022-11-19T00:38:49.560Z,12.35
2022-11-19T00:41:16.691Z,12.32
2022-11-19T00:43:50.290Z,12.29
2022-11-19T00:46:23.382Z,12.26
2022-11-19T00:48:52.339Z,12.25
2022-11-19T00:51:20.466Z,12.26
2022-11-19T00:53:47.692Z,12.28
2022-11-19T00:56:18.918Z,12.30
2022-11-19T00:58:46.564Z,12.31
2022-11-19T01:01:15.260Z,12.27
2022-11-19T01:03:45.662Z,12.23
2022-11-19T01:06:18.660Z,12.22
2022-11-19T01:08:47.697Z,12.16
2022-11-19T01:11:20.796Z,12.26
2022-11-19T01:13:48.610Z,12.24
2022-11-19T01:16:21.549Z,12.23
2022-11-19T01:18:50.247Z,12.17
2022-11-19T01:21:18.878Z,12.33
2022-11-19T01:23:46.308Z,12.34
2022-11-19T01:26:15.229Z,12.24
2022-11-19T01:28:43.035Z,12.13
2022-11-19T01:31:13.216Z,12.10
2022-11-19T01:33:40.557Z,12.25
2022-11-19T01:36:11.722Z,12.25
2022-11-19T01:38:38.658Z,12.25
2022-11-19T01:41:06.307Z,12.28
2022-11-19T01:43:46.582Z,12.40
2022-11-19T01:46:16.306Z,12.45
2022-11-19T01:49:08.590Z,12.44
2022-11-19T01:51:39.194Z,12.31
2022-11-19T01:54:28.586Z,12.44
2022-11-19T01:56:58.598Z,12.24
2022-11-19T01:59:27.384Z,12.12
2022-11-19T02:01:54.556Z,11.98
2022-11-19T02:04:22.075Z,12.05
2022-11-19T02:06:49.437Z,12.21
2022-11-19T02:09:16.721Z,12.45
2022-11-19T02:12:34.385Z,12.39
2022-11-19T02:15:27.377Z,12.40
2022-11-19T02:18:26.232Z,12.08
2022-11-19T02:21:14.160Z,11.93
2022-11-19T02:24:31.456Z,11.69
2022-11-19T02:27:37.862Z,11.94
2022-11-19T02:30:19.695Z,12.11
2022-11-19T02:33:06.598Z,11.93
2022-11-19T02:58:06.702Z,11.60
2022-11-19T03:01:07.043Z,11.61
2022-11-19T03:03:53.134Z,11.65
2022-11-19T03:06:26.771Z,11.55
2022-11-19T03:08:54.061Z,11.50
2022-11-19T03:11:31.029Z,11.40
2022-11-19T03:14:35.728Z,11.41
2022-11-19T03:17:16.560Z,11.37
2022-11-19T03:19:49.243Z,11.32
2022-11-19T03:22:22.401Z,11.12
2022-11-19T03:24:59.197Z,11.05
2022-11-19T03:27:42.553Z,11.06
2022-11-19T03:30:11.411Z,11.05
2022-11-19T03:32:48.617Z,11.06
2022-11-19T03:35:22.909Z,11.10
2022-11-19T03:37:54.568Z,11.12
2022-11-19T03:40:23.765Z,11.16
2022-11-19T03:42:54.702Z,11.21
2022-11-19T03:45:32.438Z,11.23
2022-11-19T03:48:04.056Z,11.20
2022-11-19T03:50:54.531Z,11.13
2022-11-19T03:53:22.538Z,11.09
2022-11-19T03:56:02.240Z,11.04
2022-11-19T03:58:29.951Z,10.96
2022-11-19T04:00:56.993Z,10.95
2022-11-19T04:03:24.051Z,10.94
2022-11-19T04:05:50.973Z,10.95
2022-11-19T04:08:17.988Z,11.00
2022-11-19T04:10:45.077Z,11.06
2022-11-19T04:13:12.213Z,11.07
2022-11-19T04:15:39.341Z,11.03
2022-11-19T04:18:06.377Z,11.00
2022-11-19T04:20:33.456Z,10.98
2022-11-19T04:23:00.702Z,11.00
2022-11-19T04:25:27.909Z,10.99
2022-11-19T04:27:55.019Z,11.03
2022-11-19T04:30:21.976Z,11.01
2022-11-19T04:32:48.906Z,10.95
2022-11-19T04:35:18.358Z,10.93
2022-11-19T04:37:45.617Z,10.94
2022-11-19T04:40:13.509Z,10.94
2022-11-19T04:42:40.801Z,10.91
2022-11-19T04:45:08.947Z,10.90
2022-11-19T04:47:35.980Z,10.93
2022-11-19T04:50:03.086Z,11.01
2022-11-19T04:52:36.315Z,11.05
2022-11-19T04:55:06.539Z,11.10
2022-11-19T04:57:33.709Z,11.07
2022-11-19T05:00:00.743Z,11.07
2022-11-19T05:02:27.763Z,11.12
2022-11-19T05:04:54.880Z,11.22
2022-11-19T05:07:21.910Z,11.25
2022-11-19T05:09:48.894Z,11.38
2022-11-19T05:12:15.978Z,11.46
2022-11-19T05:14:43.043Z,11.39
2022-11-19T05:17:10.081Z,11.38
2022-11-19T05:19:37.104Z,11.47
2022-11-19T05:22:04.082Z,11.46
2022-11-19T05:24:41.138Z,11.42
2022-11-19T05:27:08.688Z,11.29
2022-11-19T05:29:35.778Z,11.10
2022-11-19T05:32:02.736Z,11.18
2022-11-19T05:34:29.797Z,11.38
2022-11-19T05:36:56.824Z,11.43
2022-11-19T05:39:24.457Z,11.33
2022-11-19T05:41:51.726Z,11.08
2022-11-19T05:44:18.759Z,11.01
2022-11-19T05:46:45.773Z,10.95
2022-11-19T05:49:12.820Z,10.86
2022-11-19T05:51:39.963Z,10.76
2022-11-19T05:54:07.010Z,10.71
2022-11-19T05:56:34.122Z,10.75
2022-11-19T05:59:01.152Z,10.80
2022-11-19T06:01:29.652Z,10.83
2022-11-19T06:03:56.753Z,10.92
2022-11-19T06:06:24.150Z,11.01
2022-11-19T06:08:51.367Z,11.06
2022-11-19T06:11:36.959Z,11.14
2022-11-19T06:14:04.307Z,11.20
2022-11-19T06:16:31.414Z,11.28
2022-11-19T06:18:58.531Z,11.35
2022-11-19T06:21:25.503Z,11.45
2022-11-19T06:23:52.493Z,11.62
2022-11-19T06:26:27.462Z,12.00
2022-11-19T06:28:55.251Z,11.93
2022-11-19T06:31:22.701Z,11.84
2022-11-19T06:33:50.411Z,11.76
2022-11-19T06:36:17.422Z,11.77
2022-11-19T06:38:44.569Z,11.82
2022-11-19T06:41:11.958Z,11.88
2022-11-19T06:43:38.919Z,11.98
2022-11-19T06:46:06.106Z,12.05
2022-11-19T06:48:33.160Z,12.13
2022-11-19T06:51:01.907Z,12.16
2022-11-19T06:53:29.536Z,12.31
2022-11-19T06:56:01.132Z,12.34
2022-11-19T06:58:29.468Z,12.35
2022-11-19T07:00:56.984Z,12.37
2022-11-19T07:03:24.902Z,12.44
2022-11-19T07:05:59.450Z,12.56
2022-11-19T07:08:26.864Z,12.66
2022-11-19T07:10:54.310Z,12.73
2022-11-19T07:13:21.360Z,12.84
2022-11-19T07:15:48.691Z,12.94
2022-11-19T07:18:15.968Z,12.99
2022-11-19T07:20:48.926Z,13.10
2022-11-19T07:23:16.144Z,13.18
2022-11-19T07:25:43.223Z,13.25
2022-11-19T07:28:10.309Z,13.34
2022-11-19T07:30:37.347Z,13.43
2022-11-19T07:33:04.342Z,13.51
2022-11-19T07:35:31.903Z,13.56
2022-11-19T07:37:58.898Z,13.62
2022-11-19T07:40:26.008Z,13.70
2022-11-19T07:42:53.473Z,13.79
2022-11-19T07:45:22.775Z,13.80
2022-11-19T07:47:49.829Z,13.97
2022-11-19T07:50:18.094Z,13.88
2022-11-19T07:52:45.191Z,13.92
2022-11-19T07:55:12.248Z,14.02
2022-11-19T07:57:39.260Z,14.12
2022-11-19T08:00:07.188Z,14.25
2022-11-19T08:02:40.060Z,14.21
2022-11-19T08:05:07.470Z,14.34
2022-11-19T08:07:34.460Z,14.42
2022-11-19T08:10:01.475Z,14.50
2022-11-19T08:12:29.500Z,14.52
2022-11-19T08:14:56.903Z,14.58
2022-11-19T08:17:42.399Z,14.67
2022-11-19T08:20:10.521Z,14.79
2022-11-19T08:22:37.528Z,14.87
2022-11-19T08:25:05.038Z,14.91
2022-11-19T08:27:32.445Z,14.98
2022-11-19T08:29:59.524Z,15.06
2022-11-19T08:32:26.467Z,15.16
2022-11-19T08:34:53.555Z,15.11
2022-11-19T08:37:20.601Z,15.17
2022-11-19T08:39:47.642Z,15.26
2022-11-19T08:42:33.238Z,15.31
2022-11-19T08:45:00.281Z,15.38
2022-11-19T08:47:27.198Z,15.37
2022-11-19T08:49:54.273Z,15.43
2022-11-19T08:52:21.306Z,15.43
2022-11-19T08:54:48.826Z,15.47
2022-11-19T08:57:17.245Z,15.51
2022-11-19T08:59:44.291Z,15.62
2022-11-19T09:02:11.580Z,15.74
2022-11-19T09:04:38.679Z,15.81
2022-11-19T09:07:05.733Z,15.71
2022-11-19T09:09:33.111Z,15.74
2022-11-19T09:12:00.189Z,15.78
2022-11-19T09:14:27.415Z,15.70
2022-11-19T09:16:54.349Z,15.70
2022-11-19T09:19:21.462Z,15.74
2022-11-19T09:21:49.127Z,15.88
2022-11-19T09:24:16.151Z,15.89
2022-11-19T09:26:43.197Z,15.93
2022-11-19T09:29:10.449Z,16.03
2022-11-19T09:31:37.631Z,16.17
2022-11-19T09:34:04.682Z,16.24
2022-11-19T09:36:31.745Z,16.36
2022-11-19T09:38:59.136Z,16.50
2022-11-19T09:41:41.496Z,16.62
2022-11-19T09:44:38.275Z,16.66
2022-11-19T09:47:59.351Z,16.77
2022-11-19T09:50:33.250Z,16.73
2022-11-19T09:53:07.532Z,16.69
2022-11-19T09:55:42.427Z,16.72
2022-11-19T09:58:33.822Z,16.83
2022-11-19T10:01:01.670Z,16.87
2022-11-19T10:03:33.184Z,16.98
2022-11-19T10:06:30.518Z,17.28
2022-11-19T10:09:53.201Z,17.51
2022-11-19T10:13:12.352Z,17.80
2022-11-19T10:48:49.222Z,18.57
2022-11-19T10:51:29.767Z,18.58
2022-11-19T10:53:57.892Z,18.61
2022-11-19T10:56:36.433Z,18.61
2022-11-19T10:59:19.350Z,18.56
2022-11-19T11:02:17.020Z,18.49
2022-11-19T11:05:12.202Z,18.44
2022-11-19T11:08:11.157Z,18.35
2022-11-19T11:10:44.921Z,18.40
2022-11-19T11:13:57.899Z,18.62
2022-11-19T11:16:38.728Z,18.81
2022-11-19T11:19:22.289Z,18.94
2022-11-19T11:21:57.794Z,18.89
2022-11-19T11:24:33.886Z,18.93
2022-11-19T11:27:21.763Z,18.80
2022-11-19T11:29:48.862Z,18.61
2022-11-19T11:32:30.837Z,18.50
2022-11-19T11:35:01.240Z,18.35
2022-11-19T11:37:33.621Z,18.28
2022-11-19T11:40:01.546Z,18.21
2022-11-19T11:42:29.697Z,18.19
2022-11-19T11:45:00.482Z,18.23
2022-11-19T11:47:31.263Z,18.26
2022-11-19T11:50:08.460Z,18.32
2022-11-19T11:52:48.425Z,18.32
2022-11-19T11:55:46.059Z,18.31
2022-11-19T11:58:45.287Z,18.28
2022-11-19T12:01:20.128Z,18.30
2022-11-19T12:03:58.700Z,18.31
2022-11-19T12:06:48.484Z,18.28
2022-11-19T12:09:43.545Z,18.34
2022-11-19T12:12:31.370Z,18.37
2022-11-19T12:15:26.034Z,18.39
2022-11-19T12:18:22.376Z,18.37
2022-11-19T12:21:21.134Z,18.37
2022-11-19T12:24:19.069Z,18.32
2022-11-19T12:27:42.163Z,18.33
2022-11-19T12:30:22.137Z,18.31
2022-11-19T12:33:23.577Z,18.33
2022-11-19T12:46:24.733Z,17.99
2022-11-19T12:49:47.146Z,18.01
2022-11-19T12:53:06.490Z,17.97
2022-11-19T12:56:19.325Z,17.92
2022-11-19T12:59:18.807Z,17.88
2022-11-19T13:01:50.795Z,17.84
2022-11-19T13:04:39.117Z,17.78
2022-11-19T13:07:13.187Z,17.81
2022-11-19T13:09:59.008Z,17.81
2022-11-19T13:12:35.559Z,17.76
2022-11-19T13:15:30.471Z,17.73
2022-11-19T13:18:02.414Z,17.68
2022-11-19T13:20:47.802Z,17.69
2022-11-19T13:23:29.332Z,17.68
2022-11-19T13:26:07.347Z,17.66
2022-11-19T13:28:51.298Z,17.70
2022-11-19T13:31:57.109Z,17.65
2022-11-19T13:34:52.834Z,17.61
2022-11-19T13:37:43.981Z,17.56
2022-11-19T13:40:31.127Z,17.50
2022-11-19T13:43:31.650Z,17.48
2022-11-19T13:46:26.428Z,17.46
2022-11-19T13:49:25.893Z,17.47
2022-11-19T13:51:58.766Z,17.45
2022-11-19T13:54:30.564Z,17.39
2022-11-19T13:56:58.621Z,17.38
2022-11-19T13:59:32.921Z,17.36
2022-11-19T14:02:46.917Z,17.35
2022-11-19T14:08:41.523Z,17.25
2022-11-19T14:11:47.596Z,17.30
2022-11-19T14:15:08.863Z,17.24
2022-11-19T14:18:19.802Z,17.12
2022-11-19T14:21:05.744Z,17.09
2022-11-19T14:24:07.195Z,17.23
2022-11-19T14:27:16.101Z,17.21
2022-11-19T14:30:06.835Z,17.23
2022-11-19T14:32:46.620Z,17.28
2022-11-19T14:35:36.433Z,17.07
2022-11-19T14:38:43.127Z,16.67
2022-11-19T14:41:28.908Z,16.61
2022-11-19T14:44:13.300Z,16.49
2022-11-19T14:46:48.746Z,16.58
2022-11-19T14:49:24.672Z,16.53
2022-11-19T14:51:54.596Z,16.48
2022-11-19T14:54:31.530Z,16.41
2022-11-19T14:57:05.711Z,16.34
2022-11-19T14:59:38.290Z,16.34
2022-11-19T15:02:39.927Z,16.26
2022-11-19T15:05:20.650Z,16.24
2022-11-19T15:07:56.254Z,16.19
2022-11-19T15:10:28.201Z,16.08
2022-11-19T15:13:22.058Z,16.06
2022-11-19T15:15:53.117Z,16.04
2022-11-19T15:18:49.214Z,15.94
2022-11-19T15:22:11.969Z,15.92
2022-11-19T15:25:27.362Z,15.91
2022-11-19T15:28:50.397Z,15.77
2022-11-19T15:31:41.355Z,15.75
2022-11-19T15:37:45.143Z,15.66
2022-11-19T15:40:20.645Z,15.64
2022-11-19T15:42:55.362Z,15.60
2022-11-19T15:45:25.048Z,15.56
2022-11-19T15:48:16.940Z,15.54
2022-11-19T15:50:45.574Z,15.61
2022-11-19T15:53:24.579Z,15.78
2022-11-19T15:56:03.097Z,15.90
2022-11-19T15:58:56.398Z,15.81
2022-11-19T16:01:23.740Z,15.49
2022-11-19T16:03:54.155Z,15.40
2022-11-19T16:06:27.791Z,15.56
2022-11-19T16:08:58.178Z,15.48
2022-11-19T16:11:47.352Z,15.41
2022-11-19T16:14:48.029Z,15.10
2022-11-19T16:17:41.663Z,15.02
2022-11-19T16:20:21.416Z,15.29
2022-11-19T16:23:10.695Z,14.92
2022-11-19T16:25:40.668Z,14.88
2022-11-19T16:28:13.047Z,14.91
2022-11-19T16:31:04.131Z,14.81
2022-11-19T16:33:32.735Z,14.70
2022-11-19T16:36:15.221Z,14.61
2022-11-19T16:38:51.261Z,14.55
2022-11-19T16:41:39.560Z,14.27
2022-11-19T16:44:11.588Z,14.16
2022-11-19T16:46:39.076Z,14.18
2022-11-19T16:49:14.581Z,14.36
2022-11-19T16:51:54.473Z,14.52
2022-11-19T16:54:45.443Z,14.46
2022-11-19T16:57:20.066Z,14.42
2022-11-19T16:59:53.574Z,14.48
2022-11-19T17:02:25.417Z,14.29
2022-11-19T17:04:55.676Z,14.20
2022-11-19T17:07:28.104Z,14.23
2022-11-19T17:10:31.718Z,14.23
2022-11-19T17:13:28.152Z,14.08
2022-11-19T17:15:55.352Z,13.90
2022-11-19T17:18:50.184Z,13.96
2022-11-19T17:21:30.075Z,13.89
2022-11-19T17:23:57.448Z,13.73
2022-11-19T17:26:27.618Z,13.68
2022-11-19T17:29:11.786Z,13.73
2022-11-19T17:31:47.385Z,13.93
2022-11-19T17:34:34.151Z,13.97
2022-11-19T17:37:01.219Z,13.83
2022-11-19T17:39:28.268Z,13.80
2022-11-19T17:42:14.503Z,13.78
2022-11-19T17:44:42.031Z,13.87
2022-11-19T17:47:23.082Z,13.67
2022-11-19T17:49:51.818Z,13.83
2022-11-19T17:52:25.894Z,13.82
2022-11-19T17:54:55.424Z,13.93
2022-11-19T17:57:22.558Z,13.74
2022-11-19T17:59:49.710Z,13.60
2022-11-19T18:02:18.817Z,13.53
2022-11-19T18:04:47.256Z,13.56
2022-11-19T18:07:14.782Z,13.59
2022-11-19T18:09:42.234Z,13.66
2022-11-19T18:12:16.828Z,13.64
2022-11-19T18:14:46.669Z,13.53
2022-11-19T18:17:15.366Z,13.47
2022-11-19T18:19:42.831Z,13.45
2022-11-19T18:22:19.855Z,13.36
2022-11-19T18:24:48.935Z,13.31
2022-11-19T18:27:16.556Z,13.26
2022-11-19T18:29:43.668Z,13.25
2022-11-19T18:32:17.134Z,13.26
2022-11-19T18:34:45.957Z,13.27
2022-11-19T18:37:13.609Z,13.26
2022-11-19T18:39:40.611Z,13.15
2022-11-19T18:42:10.738Z,12.96
2022-11-19T18:44:38.803Z,12.87
2022-11-19T18:47:12.588Z,12.88
2022-11-19T18:49:40.320Z,12.87
2022-11-19T18:52:11.353Z,12.84
2022-11-19T18:54:38.372Z,12.88
2022-11-19T18:57:05.325Z,12.92
2022-11-19T18:59:32.420Z,12.94
2022-11-19T19:01:59.468Z,12.92
2022-11-19T19:04:26.684Z,12.90
2022-11-19T19:06:53.939Z,12.83
2022-11-19T19:09:21.514Z,12.84
2022-11-19T19:12:13.000Z,12.84
2022-11-19T19:14:40.228Z,12.88
2022-11-19T19:17:07.235Z,13.05
2022-11-19T19:19:34.329Z,13.13
2022-11-19T19:22:01.414Z,13.13
2022-11-19T19:24:28.661Z,13.15
2022-11-19T19:26:55.786Z,13.12
2022-11-19T19:29:23.064Z,13.01
2022-11-19T19:31:50.279Z,13.00
2022-11-19T19:34:17.469Z,13.10
2022-11-19T19:36:47.677Z,13.25
2022-11-19T19:39:19.424Z,13.35
2022-11-19T19:41:46.733Z,13.25
2022-11-19T19:44:13.790Z,13.23
2022-11-19T19:46:40.972Z,13.16
2022-11-19T19:49:08.018Z,13.09
2022-11-19T19:51:35.167Z,13.12
2022-11-19T19:54:02.201Z,13.15
2022-11-19T19:56:31.727Z,13.24
2022-11-19T19:59:00.130Z,13.31
2022-11-19T20:01:32.235Z,13.49
2022-11-19T20:04:04.855Z,13.51
2022-11-19T20:06:32.516Z,13.59
2022-11-19T20:09:02.149Z,13.53
2022-11-19T20:11:32.735Z,13.52
2022-11-19T20:14:00.262Z,13.68
2022-11-19T20:16:29.868Z,13.75
2022-11-19T20:18:58.940Z,13.64
2022-11-19T20:21:36.444Z,13.85
2022-11-19T20:24:10.379Z,13.76
2022-11-19T20:26:40.191Z,13.79
2022-11-19T20:29:07.618Z,13.58
2022-11-19T20:31:35.135Z,13.33
2022-11-19T20:34:04.065Z,13.13
2022-11-19T20:36:34.207Z,13.11
2022-11-19T20:39:01.604Z,13.01
2022-11-19T20:41:47.663Z,12.94
2022-11-19T20:44:22.307Z,12.93
2022-11-19T20:46:58.495Z,12.93
2022-11-19T20:49:27.794Z,13.02
2022-11-19T20:51:55.697Z,13.13
2022-11-19T20:54:23.950Z,13.05
2022-11-19T20:56:52.617Z,13.28
2022-11-19T20:59:20.642Z,12.99
2022-11-19T21:01:51.761Z,12.86
2022-11-19T21:04:20.665Z,12.96
2022-11-19T21:06:49.986Z,12.97
2022-11-19T21:09:17.487Z,12.93
2022-11-19T21:11:44.563Z,12.94
2022-11-19T21:14:12.238Z,12.95
2022-11-19T21:16:39.375Z,12.99
2022-11-19T21:19:06.372Z,13.14
2022-11-19T21:21:33.497Z,13.09
2022-11-19T21:24:00.517Z,13.29
2022-11-19T21:26:28.315Z,13.37
2022-11-19T21:28:57.864Z,13.47
2022-11-19T21:31:39.910Z,13.58
2022-11-19T21:34:18.532Z,13.49
2022-11-19T21:36:46.831Z,13.52
2022-11-19T21:39:16.524Z,13.46
2022-11-19T21:41:44.527Z,13.44
2022-11-19T21:44:13.274Z,13.42
2022-11-19T21:46:43.690Z,13.67
2022-11-19T21:49:10.812Z,13.63
2022-11-19T21:51:37.872Z,13.74
2022-11-19T21:54:05.193Z,13.76
2022-11-19T21:56:38.278Z,13.82
2022-11-19T21:59:07.212Z,13.93
2022-11-19T22:01:34.828Z,14.10
2022-11-19T22:04:01.874Z,14.12
2022-11-19T22:06:30.236Z,14.24
2022-11-19T22:08:57.367Z,14.21
2022-11-19T22:11:30.393Z,14.21
2022-11-19T22:14:05.972Z,14.12
2022-11-19T22:16:36.051Z,14.15
2022-11-19T22:19:03.220Z,14.40
2022-11-19T22:21:30.266Z,14.50
2022-11-19T22:26:38.438Z,14.89
2022-11-19T22:29:05.492Z,15.01
2022-11-19T22:31:32.516Z,15.22
2022-11-19T22:33:59.744Z,15.36
2022-11-19T22:36:26.680Z,15.49
2022-11-19T22:38:53.769Z,15.60
2022-11-19T22:41:21.954Z,15.70
2022-11-19T22:43:49.832Z,15.78
2022-11-19T22:46:17.917Z,15.90
2022-11-19T22:48:45.104Z,15.96
2022-11-19T22:51:17.816Z,16.08
2022-11-19T22:53:45.138Z,16.18
2022-11-19T22:56:14.022Z,16.27
2022-11-19T22:58:41.680Z,16.34
2022-11-19T23:01:16.713Z,16.46
2022-11-19T23:03:44.162Z,16.55
2022-11-19T23:06:11.324Z,16.56
2022-11-19T23:08:38.370Z,16.61
2022-11-19T23:11:06.946Z,16.71
2022-11-19T23:13:35.896Z,16.76
2022-11-19T23:16:18.323Z,16.81
2022-11-19T23:18:52.905Z,16.86
2022-11-19T23:21:25.581Z,16.91
2022-11-19T23:23:53.057Z,16.99
2022-11-19T23:26:22.314Z,17.04
2022-11-19T23:28:50.020Z,17.00
2022-11-19T23:31:19.443Z,17.00
2022-11-19T23:33:47.108Z,17.02
2022-11-19T23:36:16.437Z,17.03
2022-11-19T23:38:43.695Z,17.08
2022-11-19T23:41:12.959Z,17.11
2022-11-19T23:43:40.553Z,17.10
2022-11-19T23:46:10.459Z,17.07
2022-11-19T23:48:39.503Z,17.08
2022-11-19T23:51:12.280Z,17.09
2022-11-19T23:53:39.198Z,17.12
2022-11-19T23:56:06.906Z,17.13
2022-11-19T23:58:34.842Z,17.11
